createdAt,value
2018-06-19T00:01:13.070Z,15.80
2018-06-19T00:03:42.561Z,15.80
2018-06-19T00:06:11.089Z,15.70
2018-06-19T00:08:39.664Z,15.70
2018-06-19T00:11:08.958Z,15.70
2018-06-19T00:13:37.407Z,15.60
2018-06-19T00:16:05.923Z,15.50
2018-06-19T00:18:36.847Z,15.50
2018-06-19T00:21:11.001Z,15.50
2018-06-19T00:23:39.615Z,15.40
2018-06-19T00:26:08.095Z,15.40
2018-06-19T00:28:39.288Z,15.40
2018-06-19T00:31:07.739Z,15.40
2018-06-19T00:33:36.244Z,15.30
2018-06-19T00:36:04.935Z,15.20
2018-06-19T00:38:33.412Z,15.10
2018-06-19T00:41:01.891Z,15.10
2018-06-19T00:43:30.366Z,15.10
2018-06-19T00:45:59.624Z,15.00
2018-06-19T00:48:28.062Z,15.00
2018-06-19T00:50:56.463Z,15.00
2018-06-19T00:53:24.873Z,15.00
2018-06-19T00:55:53.301Z,15.10
2018-06-19T00:58:21.741Z,15.00
2018-06-19T01:00:50.145Z,15.00
2018-06-19T01:03:18.693Z,15.00
2018-06-19T01:05:47.209Z,15.00
2018-06-19T01:08:15.671Z,15.00
2018-06-19T01:10:44.133Z,14.90
2018-06-19T01:13:12.592Z,15.00
2018-06-19T01:15:41.007Z,14.90
2018-06-19T01:18:09.476Z,14.90
2018-06-19T01:20:37.925Z,14.80
2018-06-19T01:23:06.333Z,14.80
2018-06-19T01:25:34.708Z,14.80
2018-06-19T01:28:03.114Z,14.80
2018-06-19T01:30:31.546Z,14.70
2018-06-19T01:32:59.996Z,14.70
2018-06-19T01:35:28.476Z,14.70
2018-06-19T01:37:56.936Z,14.70
2018-06-19T01:40:25.437Z,14.60
2018-06-19T01:42:53.880Z,14.60
2018-06-19T01:45:22.360Z,14.60
2018-06-19T01:47:50.765Z,14.50
2018-06-19T01:50:19.260Z,14.60
2018-06-19T01:52:47.714Z,14.60
2018-06-19T01:55:16.120Z,14.50
2018-06-19T01:57:44.653Z,14.40
2018-06-19T02:00:13.039Z,14.40
2018-06-19T02:02:41.496Z,14.40
2018-06-19T02:05:09.906Z,14.30
2018-06-19T02:07:38.303Z,14.30
2018-06-19T02:10:06.730Z,14.30
2018-06-19T02:12:35.216Z,14.40
2018-06-19T02:15:03.644Z,14.30
2018-06-19T02:17:32.141Z,14.30
2018-06-19T02:20:00.602Z,14.30
2018-06-19T02:22:29.049Z,14.30
2018-06-19T02:24:57.514Z,14.30
2018-06-19T02:27:26.016Z,14.30
2018-06-19T02:29:54.428Z,14.40
2018-06-19T02:32:22.971Z,14.40
2018-06-19T02:34:51.393Z,14.40
2018-06-19T02:37:19.893Z,14.50
2018-06-19T02:39:48.313Z,14.40
2018-06-19T02:42:16.724Z,14.50
2018-06-19T02:44:45.140Z,14.50
2018-06-19T02:47:13.514Z,14.50
2018-06-19T02:49:42.004Z,14.40
2018-06-19T02:52:10.575Z,14.40
2018-06-19T02:54:39.030Z,14.40
2018-06-19T02:57:07.608Z,14.40
2018-06-19T02:59:36.056Z,14.50
2018-06-19T03:02:04.510Z,14.60
2018-06-19T03:04:32.947Z,14.50
2018-06-19T03:07:01.368Z,14.60
2018-06-19T03:09:29.785Z,14.60
2018-06-19T03:11:58.256Z,14.70
2018-06-19T03:14:26.740Z,14.70
2018-06-19T03:16:55.168Z,14.70
2018-06-19T03:19:23.670Z,14.70
2018-06-19T03:21:52.072Z,14.80
2018-06-19T03:24:20.589Z,14.80
2018-06-19T03:26:49.013Z,14.80
2018-06-19T03:29:17.475Z,14.80
2018-06-19T03:31:45.868Z,14.90
2018-06-19T03:34:14.419Z,14.90
2018-06-19T03:36:43.000Z,14.90
2018-06-19T03:39:12.248Z,14.90
2018-06-19T03:41:41.269Z,14.90
2018-06-19T03:44:09.943Z,14.90
2018-06-19T03:46:38.457Z,14.90
2018-06-19T03:49:06.974Z,14.90
2018-06-19T03:51:35.422Z,14.90
2018-06-19T03:54:03.839Z,14.90
2018-06-19T03:56:32.250Z,14.90
2018-06-19T03:59:00.655Z,14.90
2018-06-19T04:01:29.188Z,14.80
2018-06-19T04:03:57.662Z,14.90
2018-06-19T04:06:30.304Z,14.80
2018-06-19T04:08:58.841Z,14.80
2018-06-19T04:11:27.355Z,14.80
2018-06-19T04:13:56.061Z,14.90
2018-06-19T04:16:24.484Z,15.00
2018-06-19T04:18:53.242Z,15.10
2018-06-19T04:21:21.755Z,15.20
2018-06-19T04:23:50.437Z,15.30
2018-06-19T04:26:18.864Z,15.30
2018-06-19T04:28:47.610Z,15.40
2018-06-19T04:31:16.928Z,15.50
2018-06-19T04:33:45.402Z,15.50
2018-06-19T04:36:13.864Z,15.40
2018-06-19T04:38:42.320Z,15.50
2018-06-19T04:41:10.730Z,15.60
2018-06-19T04:43:39.143Z,15.70
2018-06-19T04:46:07.570Z,15.70
2018-06-19T04:48:35.998Z,15.70
2018-06-19T04:51:04.473Z,15.80
2018-06-19T04:53:32.896Z,15.90
2018-06-19T04:56:01.336Z,15.90
2018-06-19T04:58:29.890Z,16.00
2018-06-19T05:00:58.522Z,16.10
2018-06-19T05:03:26.989Z,16.10
2018-06-19T05:05:55.536Z,16.20
2018-06-19T05:08:24.017Z,16.30
2018-06-19T05:10:52.506Z,16.40
2018-06-19T05:13:20.999Z,16.50
2018-06-19T05:15:49.596Z,16.60
2018-06-19T05:18:18.356Z,16.70
2018-06-19T05:20:46.802Z,16.80
2018-06-19T05:23:15.659Z,16.90
2018-06-19T05:25:44.210Z,17.00
2018-06-19T05:28:12.682Z,17.10
2018-06-19T05:30:41.340Z,17.40
2018-06-19T05:33:09.763Z,17.30
2018-06-19T05:35:38.176Z,17.30
2018-06-19T05:38:06.793Z,17.30
2018-06-19T05:40:35.398Z,17.40
2018-06-19T05:43:04.026Z,17.70
2018-06-19T05:45:33.472Z,18.10
2018-06-19T05:48:02.013Z,18.50
2018-06-19T05:50:30.512Z,18.80
2018-06-19T05:52:59.010Z,19.00
2018-06-19T05:55:27.446Z,19.10
2018-06-19T05:57:55.913Z,19.20
2018-06-19T06:00:24.417Z,18.90
2018-06-19T06:02:52.852Z,18.70
2018-06-19T06:05:21.292Z,18.70
2018-06-19T06:07:49.724Z,19.00
2018-06-19T06:12:46.299Z,19.20
2018-06-19T06:15:14.764Z,19.50
2018-06-19T06:17:43.173Z,19.70
2018-06-19T06:20:11.833Z,19.90
2018-06-19T06:22:40.351Z,19.80
2018-06-19T06:25:08.751Z,19.70
2018-06-19T06:27:37.173Z,19.40
2018-06-19T06:30:05.599Z,19.70
2018-06-19T06:32:34.039Z,19.60
2018-06-19T06:35:02.550Z,19.60
2018-06-19T06:37:30.988Z,20.30
2018-06-19T06:39:59.458Z,21.40
2018-06-19T06:42:27.876Z,22.20
2018-06-19T06:44:56.334Z,22.60
2018-06-19T06:47:27.627Z,23.00
2018-06-19T06:49:56.046Z,21.80
2018-06-19T06:52:24.542Z,22.30
2018-06-19T06:54:53.127Z,22.40
2018-06-19T06:57:21.533Z,23.20
2018-06-19T06:59:49.983Z,23.40
2018-06-19T07:02:18.504Z,23.20
2018-06-19T07:04:47.012Z,23.10
2018-06-19T07:07:15.475Z,23.40
2018-06-19T07:09:44.574Z,23.50
2018-06-19T07:12:13.004Z,24.20
2018-06-19T07:14:41.495Z,25.00
2018-06-19T07:17:09.869Z,24.80
2018-06-19T07:19:38.318Z,24.30
2018-06-19T07:22:06.724Z,24.00
2018-06-19T07:24:35.268Z,23.80
2018-06-19T07:27:03.672Z,23.50
2018-06-19T07:29:32.091Z,23.40
2018-06-19T07:32:00.511Z,23.00
2018-06-19T07:34:28.921Z,23.10
2018-06-19T07:36:57.362Z,23.30
2018-06-19T07:39:25.795Z,23.30
2018-06-19T07:41:54.297Z,23.30
2018-06-19T07:44:22.912Z,23.40
2018-06-19T07:46:52.111Z,24.00
2018-06-19T07:49:20.784Z,24.80
2018-06-19T07:51:49.228Z,25.40
2018-06-19T07:54:17.688Z,26.30
2018-06-19T07:56:46.181Z,27.20
2018-06-19T07:59:14.627Z,27.70
2018-06-19T08:01:43.027Z,27.60
2018-06-19T08:04:11.442Z,27.20
2018-06-19T08:06:39.889Z,26.50
2018-06-19T08:09:09.691Z,26.20
2018-06-19T08:11:38.149Z,27.40
2018-06-19T08:14:06.686Z,27.20
2018-06-19T08:16:35.108Z,26.80
2018-06-19T08:21:31.788Z,26.50
2018-06-19T08:24:00.555Z,26.30
2018-06-19T08:26:29.129Z,26.70
2018-06-19T08:28:57.640Z,27.30
2018-06-19T08:31:26.197Z,27.70
2018-06-19T08:33:54.587Z,27.20
2018-06-19T08:36:23.185Z,27.10
2018-06-19T08:38:51.541Z,26.50
2018-06-19T08:41:19.976Z,26.40
2018-06-19T08:43:48.564Z,26.40
2018-06-19T08:46:16.996Z,26.40
2018-06-19T08:48:45.389Z,26.70
2018-06-19T08:51:14.452Z,27.60
2018-06-19T08:53:42.989Z,28.60
2018-06-19T08:56:11.492Z,28.90
2018-06-19T08:58:40.035Z,29.60
2018-06-19T09:01:08.440Z,29.20
2018-06-19T09:03:37.242Z,28.30
2018-06-19T09:06:05.710Z,28.30
2018-06-19T09:08:34.320Z,27.50
2018-06-19T09:11:02.853Z,27.40
2018-06-19T09:13:31.299Z,28.00
2018-06-19T09:15:59.810Z,28.20
2018-06-19T09:18:28.411Z,27.50
2018-06-19T09:20:56.968Z,26.90
2018-06-19T09:23:25.445Z,26.30
2018-06-19T09:25:53.916Z,25.80
2018-06-19T09:28:22.387Z,25.90
2018-06-19T09:30:50.812Z,25.80
2018-06-19T09:33:19.347Z,26.00
2018-06-19T09:35:47.826Z,26.00
2018-06-19T09:38:16.297Z,26.10
2018-06-19T09:40:44.916Z,25.70
2018-06-19T09:43:13.724Z,25.30
2018-06-19T09:45:42.201Z,25.20
2018-06-19T09:48:10.719Z,25.30
2018-06-19T09:50:39.254Z,26.50
2018-06-19T09:53:07.721Z,27.40
2018-06-19T09:55:36.336Z,27.10
2018-06-19T09:58:11.417Z,26.30
2018-06-19T10:00:40.136Z,26.20
2018-06-19T10:03:08.682Z,25.90
2018-06-19T10:05:37.130Z,25.40
2018-06-19T10:08:05.539Z,24.80
2018-06-19T10:10:33.965Z,24.80
2018-06-19T10:13:02.445Z,24.60
2018-06-19T10:15:31.137Z,24.30
2018-06-19T10:17:59.592Z,24.20
2018-06-19T10:20:27.997Z,24.00
2018-06-19T10:22:56.426Z,24.40
2018-06-19T10:25:24.872Z,25.90
2018-06-19T10:27:53.381Z,27.30
2018-06-19T10:30:21.908Z,27.80
2018-06-19T10:32:50.389Z,27.70
2018-06-19T10:35:18.835Z,27.70
2018-06-19T10:37:47.228Z,27.20
2018-06-19T10:42:43.831Z,26.30
2018-06-19T10:45:12.270Z,25.90
2018-06-19T10:47:40.697Z,25.70
2018-06-19T10:50:09.101Z,25.90
2018-06-19T10:52:37.591Z,26.40
2018-06-19T10:55:06.084Z,26.10
2018-06-19T10:57:34.610Z,25.80
2018-06-19T11:00:03.131Z,26.30
2018-06-19T11:02:31.564Z,26.40
2018-06-19T11:04:59.973Z,26.30
2018-06-19T11:07:28.477Z,25.90
2018-06-19T11:09:58.117Z,25.30
2018-06-19T11:12:26.997Z,25.10
2018-06-19T11:14:55.584Z,25.00
2018-06-19T11:17:24.075Z,24.90
2018-06-19T11:19:52.531Z,24.60
2018-06-19T11:22:20.932Z,24.30
2018-06-19T11:24:49.387Z,24.10
2018-06-19T11:27:17.810Z,24.10
2018-06-19T11:29:46.316Z,24.10
2018-06-19T11:32:14.750Z,24.10
2018-06-19T11:34:43.546Z,24.10
2018-06-19T11:37:12.008Z,24.10
2018-06-19T11:39:40.473Z,23.90
2018-06-19T11:42:08.972Z,24.00
2018-06-19T11:44:37.384Z,24.30
2018-06-19T11:47:05.856Z,24.80
2018-06-19T11:49:34.415Z,25.40
2018-06-19T11:52:02.933Z,25.50
2018-06-19T11:54:31.413Z,25.80
2018-06-19T11:56:59.826Z,26.10
2018-06-19T11:59:28.333Z,27.10
2018-06-19T12:01:56.799Z,27.60
2018-06-19T12:04:25.239Z,26.80
2018-06-19T12:06:53.744Z,26.90
2018-06-19T12:11:51.049Z,26.40
2018-06-19T12:14:19.508Z,26.10
2018-06-19T12:16:48.017Z,26.50
2018-06-19T12:19:16.541Z,27.20
2018-06-19T12:21:45.002Z,28.30
2018-06-19T12:24:13.466Z,29.30
2018-06-19T12:26:41.933Z,30.50
2018-06-19T12:29:10.343Z,28.90
2018-06-19T12:31:38.822Z,28.50
2018-06-19T12:34:07.283Z,27.80
2018-06-19T12:36:35.727Z,27.00
2018-06-19T12:39:06.314Z,26.50
2018-06-19T12:41:45.959Z,25.80
2018-06-19T12:44:14.480Z,25.40
2018-06-19T12:46:43.334Z,25.30
2018-06-19T12:49:12.214Z,25.50
2018-06-19T12:51:57.547Z,27.00
2018-06-19T12:55:34.749Z,28.00
2018-06-19T12:58:03.206Z,30.90
2018-06-19T13:00:31.711Z,30.90
2018-06-19T13:03:11.641Z,30.10
2018-06-19T13:05:51.342Z,29.20
2018-06-19T13:08:19.836Z,28.70
2018-06-19T13:10:48.313Z,30.30
2018-06-19T13:13:30.189Z,31.70
2018-06-19T13:15:58.732Z,32.30
2018-06-19T13:18:40.070Z,32.30
2018-06-19T13:21:08.609Z,32.50
2018-06-19T13:23:37.239Z,33.60
2018-06-19T13:26:05.681Z,34.00
2018-06-19T13:29:56.792Z,31.50
2018-06-19T13:32:25.655Z,31.50
2018-06-19T13:34:54.147Z,29.80
2018-06-19T13:37:22.706Z,28.80
2018-06-19T13:41:01.993Z,28.40
2018-06-19T13:43:42.256Z,28.20
2018-06-19T13:46:11.603Z,27.40
2018-06-19T13:48:40.907Z,27.60
2018-06-19T13:51:09.838Z,27.50
2018-06-19T13:53:38.358Z,27.30
2018-06-19T13:57:19.278Z,27.60
2018-06-19T13:59:47.962Z,27.40
2018-06-19T14:02:16.868Z,27.70
2018-06-19T14:04:45.313Z,27.50
2018-06-19T14:09:53.383Z,26.80
2018-06-19T14:13:09.265Z,26.70
2018-06-19T14:15:41.314Z,27.00
2018-06-19T14:18:10.458Z,27.00
2018-06-19T14:20:39.659Z,27.20
2018-06-19T14:23:08.171Z,27.00
2018-06-19T14:25:36.638Z,26.50
2018-06-19T14:28:05.198Z,26.60
2018-06-19T14:30:33.729Z,26.60
2018-06-19T14:35:30.473Z,26.20
2018-06-19T14:37:59.163Z,26.50
2018-06-19T14:40:27.766Z,26.70
2018-06-19T14:42:56.249Z,26.80
2018-06-19T14:45:24.806Z,26.90
2018-06-19T14:47:53.347Z,26.70
2018-06-19T14:50:21.855Z,27.00
2018-06-19T14:52:50.336Z,26.60
2018-06-19T14:55:18.820Z,26.40
2018-06-19T14:57:47.237Z,26.30
2018-06-19T15:00:15.835Z,26.50
2018-06-19T15:02:44.324Z,26.50
2018-06-19T15:05:12.886Z,26.40
2018-06-19T15:07:47.600Z,26.20
2018-06-19T15:10:16.306Z,26.10
2018-06-19T15:12:44.740Z,26.00
2018-06-19T15:15:13.248Z,25.90
2018-06-19T15:17:41.744Z,26.00
2018-06-19T15:20:10.268Z,25.90
2018-06-19T15:22:38.790Z,26.10
2018-06-19T15:25:07.364Z,26.00
2018-06-19T15:27:35.982Z,26.00
2018-06-19T15:30:04.666Z,26.20
2018-06-19T15:32:33.114Z,26.40
2018-06-19T15:35:01.689Z,26.40
2018-06-19T15:37:30.213Z,26.40
2018-06-19T15:39:58.650Z,26.50
2018-06-19T15:42:27.119Z,26.40
2018-06-19T15:44:55.602Z,26.40
2018-06-19T15:47:24.112Z,26.30
2018-06-19T15:49:52.861Z,26.30
2018-06-19T15:52:21.465Z,26.50
2018-06-19T15:54:49.997Z,26.50
2018-06-19T15:57:18.442Z,26.60
2018-06-19T15:59:46.941Z,26.40
2018-06-19T16:02:15.428Z,26.40
2018-06-19T16:04:43.900Z,26.50
2018-06-19T16:07:12.359Z,26.50
2018-06-19T16:09:40.798Z,26.40
2018-06-19T16:12:09.286Z,26.30
2018-06-19T16:14:37.732Z,26.30
2018-06-19T16:17:06.243Z,26.10
2018-06-19T16:19:34.690Z,25.80
2018-06-19T16:22:03.134Z,25.70
2018-06-19T16:29:27.960Z,25.70
2018-06-19T16:31:56.420Z,25.70
2018-06-19T16:34:24.980Z,25.80
2018-06-19T16:36:53.521Z,25.70
2018-06-19T16:39:22.037Z,25.70
2018-06-19T16:41:50.583Z,25.90
2018-06-19T16:44:19.088Z,25.90
2018-06-19T16:46:47.596Z,25.90
2018-06-19T16:49:16.376Z,25.80
2018-06-19T16:51:44.842Z,25.90
2018-06-19T16:54:13.334Z,25.80
2018-06-19T16:56:41.860Z,25.80
2018-06-19T17:01:38.671Z,25.70
2018-06-19T17:04:07.133Z,25.60
2018-06-19T17:06:36.111Z,25.70
2018-06-19T17:09:06.651Z,25.80
2018-06-19T17:11:35.066Z,25.80
2018-06-19T17:14:03.543Z,25.70
2018-06-19T17:16:32.110Z,25.50
2018-06-19T17:19:00.646Z,25.50
2018-06-19T17:21:29.338Z,25.40
2018-06-19T17:23:58.077Z,25.40
2018-06-19T17:26:26.566Z,25.10
2018-06-19T17:28:55.086Z,25.20
2018-06-19T17:31:23.567Z,25.20
2018-06-19T17:33:52.083Z,25.20
2018-06-19T17:36:20.566Z,25.20
2018-06-19T17:38:49.029Z,25.30
2018-06-19T17:41:17.550Z,25.10
2018-06-19T17:43:46.016Z,25.20
2018-06-19T17:46:14.459Z,25.20
2018-06-19T17:48:42.921Z,25.20
2018-06-19T17:51:11.446Z,25.30
2018-06-19T17:53:39.873Z,25.10
2018-06-19T17:56:08.724Z,25.10
2018-06-19T17:58:37.268Z,25.00
2018-06-19T18:01:06.021Z,24.90
2018-06-19T18:03:34.586Z,24.80
2018-06-19T18:06:03.098Z,24.70
2018-06-19T18:08:31.847Z,24.60
2018-06-19T18:11:00.313Z,24.60
2018-06-19T18:13:28.855Z,24.50
2018-06-19T18:15:57.513Z,24.50
2018-06-19T18:18:25.985Z,24.40
2018-06-19T18:20:54.504Z,24.30
2018-06-19T18:23:22.966Z,24.20
2018-06-19T18:25:51.582Z,24.00
2018-06-19T18:28:20.178Z,24.00
2018-06-19T18:30:48.736Z,24.00
2018-06-19T18:33:17.275Z,23.90
2018-06-19T18:35:46.048Z,23.90
2018-06-19T18:38:15.162Z,23.80
2018-06-19T18:40:43.916Z,23.70
2018-06-19T18:43:12.622Z,23.70
2018-06-19T18:45:41.394Z,23.70
2018-06-19T18:48:10.108Z,23.60
2018-06-19T18:50:38.972Z,23.60
2018-06-19T18:53:08.047Z,23.50
2018-06-19T18:55:36.744Z,23.40
2018-06-19T18:58:05.417Z,23.40
2018-06-19T19:00:34.143Z,23.30
2018-06-19T19:03:02.887Z,23.30
2018-06-19T19:05:31.762Z,23.30
2018-06-19T19:08:00.312Z,23.20
2018-06-19T19:10:34.139Z,23.20
2018-06-19T19:13:02.877Z,23.20
2018-06-19T19:15:36.704Z,23.10
2018-06-19T19:18:11.718Z,23.10
2018-06-19T19:20:40.319Z,23.00
2018-06-19T19:23:08.864Z,23.00
2018-06-19T19:25:37.795Z,23.00
2018-06-19T19:28:11.903Z,23.00
2018-06-19T19:30:41.378Z,22.90
2018-06-19T19:33:10.009Z,22.90
2018-06-19T19:35:38.702Z,22.90
2018-06-19T19:38:12.934Z,22.80
2018-06-19T19:40:43.461Z,22.80
2018-06-19T19:43:12.358Z,22.70
2018-06-19T19:45:41.112Z,22.70
2018-06-19T19:48:15.414Z,22.60
2018-06-19T19:50:44.431Z,22.50
2018-06-19T19:53:13.172Z,22.50
2018-06-19T19:55:47.205Z,22.40
2018-06-19T19:58:21.825Z,22.40
2018-06-19T20:00:50.816Z,22.40
2018-06-19T20:03:20.569Z,22.30
2018-06-19T20:05:49.891Z,22.40
2018-06-19T20:08:20.768Z,22.30
2018-06-19T20:10:52.055Z,22.20
2018-06-19T20:13:22.687Z,22.20
2018-06-19T20:15:51.759Z,22.30
2018-06-19T20:18:20.861Z,22.20
2018-06-19T20:20:49.758Z,22.20
2018-06-19T20:23:18.589Z,22.20
2018-06-19T20:25:47.320Z,22.10
2018-06-19T20:28:15.968Z,22.10
2018-06-19T20:30:44.728Z,22.10
2018-06-19T20:35:41.860Z,22.00
2018-06-19T20:38:10.528Z,21.90
2018-06-19T20:40:39.265Z,22.00
2018-06-19T20:43:08.080Z,22.00
2018-06-19T20:45:37.378Z,21.90
2018-06-19T20:48:06.040Z,21.90
2018-06-19T20:50:34.656Z,21.90
2018-06-19T20:53:03.147Z,21.80
2018-06-19T20:55:31.708Z,21.80
2018-06-19T20:58:01.203Z,21.80
2018-06-19T21:00:33.039Z,21.80
2018-06-19T21:03:03.312Z,21.70
2018-06-19T21:05:32.123Z,21.60
2018-06-19T21:08:00.726Z,21.60
2018-06-19T21:10:30.400Z,21.60
2018-06-19T21:12:58.996Z,21.50
2018-06-19T21:15:27.506Z,21.50
2018-06-19T21:17:56.024Z,21.50
2018-06-19T21:20:25.022Z,21.50
2018-06-19T21:22:53.553Z,21.50
2018-06-19T21:25:22.137Z,21.50
2018-06-19T21:27:50.636Z,21.50
2018-06-19T21:30:19.318Z,21.60
2018-06-19T21:32:47.907Z,21.60
2018-06-19T21:35:16.444Z,21.60
2018-06-19T21:37:45.080Z,21.60
2018-06-19T21:40:13.653Z,21.50
2018-06-19T21:42:42.098Z,21.50
2018-06-19T21:45:10.652Z,21.40
2018-06-19T21:47:39.262Z,21.40
2018-06-19T21:50:07.943Z,21.30
2018-06-19T21:52:36.547Z,21.30
2018-06-19T21:55:05.055Z,21.30
2018-06-19T21:57:33.557Z,21.20
2018-06-19T22:00:01.977Z,21.20
2018-06-19T22:02:32.720Z,21.20
2018-06-19T22:05:02.861Z,21.20
2018-06-19T22:07:31.642Z,21.10
2018-06-19T22:10:00.099Z,21.00
2018-06-19T22:12:28.563Z,21.00
2018-06-19T22:14:57.046Z,21.00
2018-06-19T22:17:25.508Z,21.00
2018-06-19T22:19:53.984Z,20.90
2018-06-19T22:22:22.596Z,20.90
2018-06-19T22:24:50.986Z,20.90
2018-06-19T22:27:19.422Z,20.80
2018-06-19T22:29:47.878Z,20.80
2018-06-19T22:32:16.386Z,20.90
2018-06-19T22:34:44.829Z,20.90
2018-06-19T22:37:13.265Z,20.90
2018-06-19T22:39:41.696Z,20.90
2018-06-19T22:42:10.199Z,20.90
2018-06-19T22:44:38.679Z,20.90
2018-06-19T22:47:07.140Z,20.90
2018-06-19T22:49:35.672Z,20.90
2018-06-19T22:52:04.170Z,20.90
2018-06-19T22:54:32.569Z,20.90
2018-06-19T22:57:00.989Z,20.90
2018-06-19T22:59:29.394Z,20.90
2018-06-19T23:01:57.861Z,20.90
2018-06-19T23:04:26.422Z,20.80
2018-06-19T23:06:54.886Z,20.80
2018-06-19T23:09:23.416Z,20.70
2018-06-19T23:11:51.889Z,20.70
2018-06-19T23:14:20.399Z,20.70
2018-06-19T23:16:48.828Z,20.60
2018-06-19T23:19:17.349Z,20.60
2018-06-19T23:21:45.788Z,20.60
2018-06-19T23:24:14.184Z,20.60
2018-06-19T23:26:42.632Z,20.50
2018-06-19T23:29:11.090Z,20.50
2018-06-19T23:31:39.565Z,20.50
2018-06-19T23:34:08.054Z,20.40
2018-06-19T23:39:06.695Z,20.40
2018-06-19T23:41:35.205Z,20.40
2018-06-19T23:44:03.761Z,20.30
2018-06-19T23:46:32.269Z,20.30
2018-06-19T23:49:00.725Z,20.40
2018-06-19T23:51:29.167Z,20.40
2018-06-19T23:53:58.628Z,20.30
2018-06-19T23:56:27.135Z,20.30
2018-06-19T23:58:55.633Z,20.30
